Virgilia, California
Current Conditions -  °F | °C
As of 3:55 PM on Sunday 23 Nov 2014 (Local Time) from KCIC Reporting Station
Overcast Overcast  
Wind Chill: 55°   Ceiling: 10000
Heat Index: 55°   Visibility: 40mi
Dew Point: 41°   Wind: 5mph
Humidity: 58%   Direction: 320°NW
Pressure: 30.29"   Gusts: NA
Location:  39.9994°N, 121.168°W
Report Text: KCIC 232355Z 32004KT 40SM BKN100 OVC200 13/05 A3029
Loading
Personal Weather Stations






























Interactive Weather Map New forecast layout! Learn more

10-Day Weather Forecast

Advertisements
Track Severe Weather on mobile